sensor_id;sensor_type;location;lat;lon;timestamp;P1;P2;P0
44350;PMS5003;62766;62.622;17.912;2023-05-16T00:00:08;25;25;
44350;PMS5003;62766;62.622;17.912;2023-05-16T00:02:37;26;23;
44350;PMS5003;62766;62.622;17.912;2023-05-16T00:05:07;19;19;
44350;PMS5003;62766;62.622;17.912;2023-05-16T00:07:37;21;19;
44350;PMS5003;62766;62.622;17.912;2023-05-16T00:10:06;22;22;
44350;PMS5003;62766;62.622;17.912;2023-05-16T00:12:35;22;21;
44350;PMS5003;62766;62.622;17.912;2023-05-16T00:15:05;16;14;
44350;PMS5003;62766;62.622;17.912;2023-05-16T00:17:35;23;20;
44350;PMS5003;62766;62.622;17.912;2023-05-16T00:20:04;26;26;
44350;PMS5003;62766;62.622;17.912;2023-05-16T00:22:33;23;20;
44350;PMS5003;62766;62.622;17.912;2023-05-16T00:25:01;23;23;
44350;PMS5003;62766;62.622;17.912;2023-05-16T00:27:30;18;18;
44350;PMS5003;62766;62.622;17.912;2023-05-16T00:29:58;17;17;
44350;PMS5003;62766;62.622;17.912;2023-05-16T00:32:27;18;16;
44350;PMS5003;62766;62.622;17.912;2023-05-16T00:34:56;18;17;
44350;PMS5003;62766;62.622;17.912;2023-05-16T00:37:25;16;16;
44350;PMS5003;62766;62.622;17.912;2023-05-16T00:39:52;17;17;
44350;PMS5003;62766;62.622;17.912;2023-05-16T00:42:20;20;19;
44350;PMS5003;62766;62.622;17.912;2023-05-16T00:44:49;20;16;
44350;PMS5003;62766;62.622;17.912;2023-05-16T00:47:18;26;23;
44350;PMS5003;62766;62.622;17.912;2023-05-16T00:49:46;22;21;
44350;PMS5003;62766;62.622;17.912;2023-05-16T00:52:15;20;19;
44350;PMS5003;62766;62.622;17.912;2023-05-16T00:54:43;20;20;
44350;PMS5003;62766;62.622;17.912;2023-05-16T00:57:12;22;22;
44350;PMS5003;62766;62.622;17.912;2023-05-16T00:59:40;20;20;
44350;PMS5003;62766;62.622;17.912;2023-05-16T01:02:08;19;19;
44350;PMS5003;62766;62.622;17.912;2023-05-16T01:04:38;17;17;
44350;PMS5003;62766;62.622;17.912;2023-05-16T01:07:07;20;19;
44350;PMS5003;62766;62.622;17.912;2023-05-16T01:09:35;17;17;
44350;PMS5003;62766;62.622;17.912;2023-05-16T01:12:08;26;25;
44350;PMS5003;62766;62.622;17.912;2023-05-16T01:14:44;23;23;
44350;PMS5003;62766;62.622;17.912;2023-05-16T01:17:20;24;24;
44350;PMS5003;62766;62.622;17.912;2023-05-16T01:19:59;24;23;
44350;PMS5003;62766;62.622;17.912;2023-05-16T01:22:40;21;21;
44350;PMS5003;62766;62.622;17.912;2023-05-16T01:25:25;19;19;
44350;PMS5003;62766;62.622;17.912;2023-05-16T01:28:04;16;16;
44350;PMS5003;62766;62.622;17.912;2023-05-16T01:30:36;20;18;
44350;PMS5003;62766;62.622;17.912;2023-05-16T01:33:05;16;16;
44350;PMS5003;62766;62.622;17.912;2023-05-16T01:35:35;17;15;
44350;PMS5003;62766;62.622;17.912;2023-05-16T01:38:11;14;13;
44350;PMS5003;62766;62.622;17.912;2023-05-16T01:40:47;13;13;
44350;PMS5003;62766;62.622;17.912;2023-05-16T01:43:23;14;12;
44350;PMS5003;62766;62.622;17.912;2023-05-16T01:45:59;19;19;
44350;PMS5003;62766;62.622;17.912;2023-05-16T01:48:34;13;12;
44350;PMS5003;62766;62.622;17.912;2023-05-16T01:51:07;16;16;
44350;PMS5003;62766;62.622;17.912;2023-05-16T01:53:37;15;14;
44350;PMS5003;62766;62.622;17.912;2023-05-16T01:56:08;13;13;
44350;PMS5003;62766;62.622;17.912;2023-05-16T01:58:42;13;11;
44350;PMS5003;62766;62.622;17.912;2023-05-16T02:01:12;14;14;
44350;PMS5003;62766;62.622;17.912;2023-05-16T02:03:41;16;16;
44350;PMS5003;62766;62.622;17.912;2023-05-16T02:06:09;11;11;
44350;PMS5003;62766;62.622;17.912;2023-05-16T02:08:38;14;13;
44350;PMS5003;62766;62.622;17.912;2023-05-16T02:11:07;17;17;
44350;PMS5003;62766;62.622;17.912;2023-05-16T02:13:36;15;15;
44350;PMS5003;62766;62.622;17.912;2023-05-16T02:16:04;12;12;
44350;PMS5003;62766;62.622;17.912;2023-05-16T02:18:33;16;15;
44350;PMS5003;62766;62.622;17.912;2023-05-16T02:21:01;14;14;
44350;PMS5003;62766;62.622;17.912;2023-05-16T02:23:29;13;13;
44350;PMS5003;62766;62.622;17.912;2023-05-16T02:25:58;16;16;
44350;PMS5003;62766;62.622;17.912;2023-05-16T02:28:26;14;14;
44350;PMS5003;62766;62.622;17.912;2023-05-16T02:30:56;14;12;
44350;PMS5003;62766;62.622;17.912;2023-05-16T02:33:24;13;13;
44350;PMS5003;62766;62.622;17.912;2023-05-16T02:35:53;13;13;
44350;PMS5003;62766;62.622;17.912;2023-05-16T02:38:22;15;13;
44350;PMS5003;62766;62.622;17.912;2023-05-16T02:40:51;14;14;
44350;PMS5003;62766;62.622;17.912;2023-05-16T02:43:19;13;13;
44350;PMS5003;62766;62.622;17.912;2023-05-16T02:45:48;13;13;
44350;PMS5003;62766;62.622;17.912;2023-05-16T02:48:17;13;13;
44350;PMS5003;62766;62.622;17.912;2023-05-16T02:50:45;17;16;
44350;PMS5003;62766;62.622;17.912;2023-05-16T02:53:13;13;13;
44350;PMS5003;62766;62.622;17.912;2023-05-16T02:55:42;11;11;
44350;PMS5003;62766;62.622;17.912;2023-05-16T02:58:09;14;14;
44350;PMS5003;62766;62.622;17.912;2023-05-16T03:00:38;16;15;
44350;PMS5003;62766;62.622;17.912;2023-05-16T03:03:07;12;11;
44350;PMS5003;62766;62.622;17.912;2023-05-16T03:05:36;16;14;
44350;PMS5003;62766;62.622;17.912;2023-05-16T03:08:04;14;14;
44350;PMS5003;62766;62.622;17.912;2023-05-16T03:10:33;15;15;
44350;PMS5003;62766;62.622;17.912;2023-05-16T03:13:01;17;15;
44350;PMS5003;62766;62.622;17.912;2023-05-16T03:15:30;16;14;
44350;PMS5003;62766;62.622;17.912;2023-05-16T03:17:57;13;13;
44350;PMS5003;62766;62.622;17.912;2023-05-16T03:20:26;13;13;
44350;PMS5003;62766;62.622;17.912;2023-05-16T03:22:55;15;15;
44350;PMS5003;62766;62.622;17.912;2023-05-16T03:25:23;16;15;
44350;PMS5003;62766;62.622;17.912;2023-05-16T03:27:52;13;13;
44350;PMS5003;62766;62.622;17.912;2023-05-16T03:30:20;14;14;
44350;PMS5003;62766;62.622;17.912;2023-05-16T03:32:49;12;12;
44350;PMS5003;62766;62.622;17.912;2023-05-16T03:35:18;16;16;
44350;PMS5003;62766;62.622;17.912;2023-05-16T03:37:46;13;12;
44350;PMS5003;62766;62.622;17.912;2023-05-16T03:40:15;20;20;
44350;PMS5003;62766;62.622;17.912;2023-05-16T03:42:44;17;17;
44350;PMS5003;62766;62.622;17.912;2023-05-16T03:45:12;14;14;
44350;PMS5003;62766;62.622;17.912;2023-05-16T03:47:40;14;14;
44350;PMS5003;62766;62.622;17.912;2023-05-16T03:50:08;17;15;
44350;PMS5003;62766;62.622;17.912;2023-05-16T03:52:37;14;12;
44350;PMS5003;62766;62.622;17.912;2023-05-16T03:55:07;16;15;
44350;PMS5003;62766;62.622;17.912;2023-05-16T03:57:36;16;16;
44350;PMS5003;62766;62.622;17.912;2023-05-16T04:03:19;16;16;
44350;PMS5003;62766;62.622;17.912;2023-05-16T04:05:48;17;17;
44350;PMS5003;62766;62.622;17.912;2023-05-16T04:08:18;14;14;
44350;PMS5003;62766;62.622;17.912;2023-05-16T04:10:46;14;13;
44350;PMS5003;62766;62.622;17.912;2023-05-16T04:13:15;16;16;
44350;PMS5003;62766;62.622;17.912;2023-05-16T04:15:43;16;16;
44350;PMS5003;62766;62.622;17.912;2023-05-16T04:18:12;20;18;
44350;PMS5003;62766;62.622;17.912;2023-05-16T04:20:41;20;19;
44350;PMS5003;62766;62.622;17.912;2023-05-16T04:23:11;20;20;
44350;PMS5003;62766;62.622;17.912;2023-05-16T04:25:40;20;20;
44350;PMS5003;62766;62.622;17.912;2023-05-16T04:28:09;20;19;
44350;PMS5003;62766;62.622;17.912;2023-05-16T04:30:37;20;20;
44350;PMS5003;62766;62.622;17.912;2023-05-16T04:33:06;25;24;
44350;PMS5003;62766;62.622;17.912;2023-05-16T04:35:35;23;23;
44350;PMS5003;62766;62.622;17.912;2023-05-16T04:38:05;27;27;
44350;PMS5003;62766;62.622;17.912;2023-05-16T04:40:34;23;23;
44350;PMS5003;62766;62.622;17.912;2023-05-16T04:43:03;26;26;
44350;PMS5003;62766;62.622;17.912;2023-05-16T04:45:31;21;21;
44350;PMS5003;62766;62.622;17.912;2023-05-16T04:48:00;23;23;
44350;PMS5003;62766;62.622;17.912;2023-05-16T04:50:29;22;22;
44350;PMS5003;62766;62.622;17.912;2023-05-16T04:52:56;24;24;
44350;PMS5003;62766;62.622;17.912;2023-05-16T04:55:26;22;22;
44350;PMS5003;62766;62.622;17.912;2023-05-16T04:57:55;23;23;
44350;PMS5003;62766;62.622;17.912;2023-05-16T05:00:25;19;19;
44350;PMS5003;62766;62.622;17.912;2023-05-16T05:02:55;21;21;
44350;PMS5003;62766;62.622;17.912;2023-05-16T05:05:24;19;19;
44350;PMS5003;62766;62.622;17.912;2023-05-16T05:07:53;26;23;
44350;PMS5003;62766;62.622;17.912;2023-05-16T05:10:22;27;27;
44350;PMS5003;62766;62.622;17.912;2023-05-16T05:12:50;25;25;
44350;PMS5003;62766;62.622;17.912;2023-05-16T05:15:19;17;17;
44350;PMS5003;62766;62.622;17.912;2023-05-16T05:17:47;18;17;
44350;PMS5003;62766;62.622;17.912;2023-05-16T05:20:16;21;18;
44350;PMS5003;62766;62.622;17.912;2023-05-16T05:22:45;24;24;
44350;PMS5003;62766;62.622;17.912;2023-05-16T05:25:13;16;15;
44350;PMS5003;62766;62.622;17.912;2023-05-16T05:27:42;18;17;
44350;PMS5003;62766;62.622;17.912;2023-05-16T05:30:11;14;14;
44350;PMS5003;62766;62.622;17.912;2023-05-16T05:32:39;16;16;
44350;PMS5003;62766;62.622;17.912;2023-05-16T05:35:07;22;22;
44350;PMS5003;62766;62.622;17.912;2023-05-16T05:37:36;20;20;
44350;PMS5003;62766;62.622;17.912;2023-05-16T05:40:04;22;22;
44350;PMS5003;62766;62.622;17.912;2023-05-16T05:42:33;25;24;
44350;PMS5003;62766;62.622;17.912;2023-05-16T05:45:01;27;24;
44350;PMS5003;62766;62.622;17.912;2023-05-16T05:47:30;27;25;
44350;PMS5003;62766;62.622;17.912;2023-05-16T05:49:59;32;28;
44350;PMS5003;62766;62.622;17.912;2023-05-16T05:52:29;23;22;
44350;PMS5003;62766;62.622;17.912;2023-05-16T05:54:57;22;22;
44350;PMS5003;62766;62.622;17.912;2023-05-16T05:57:25;19;19;
44350;PMS5003;62766;62.622;17.912;2023-05-16T05:59:55;26;24;
44350;PMS5003;62766;62.622;17.912;2023-05-16T06:02:24;23;23;
44350;PMS5003;62766;62.622;17.912;2023-05-16T06:04:54;18;16;
44350;PMS5003;62766;62.622;17.912;2023-05-16T06:07:23;22;22;
44350;PMS5003;62766;62.622;17.912;2023-05-16T06:09:52;19;19;
44350;PMS5003;62766;62.622;17.912;2023-05-16T06:12:21;14;14;
44350;PMS5003;62766;62.622;17.912;2023-05-16T06:14:49;14;14;
44350;PMS5003;62766;62.622;17.912;2023-05-16T06:17:18;16;16;
44350;PMS5003;62766;62.622;17.912;2023-05-16T06:19:45;14;13;
44350;PMS5003;62766;62.622;17.912;2023-05-16T06:22:13;12;12;
44350;PMS5003;62766;62.622;17.912;2023-05-16T06:24:42;15;15;
44350;PMS5003;62766;62.622;17.912;2023-05-16T06:27:10;13;13;
44350;PMS5003;62766;62.622;17.912;2023-05-16T06:29:38;11;10;
44350;PMS5003;62766;62.622;17.912;2023-05-16T06:32:06;14;14;
44350;PMS5003;62766;62.622;17.912;2023-05-16T06:34:34;14;14;
44350;PMS5003;62766;62.622;17.912;2023-05-16T06:37:03;14;13;
44350;PMS5003;62766;62.622;17.912;2023-05-16T06:39:31;14;13;
44350;PMS5003;62766;62.622;17.912;2023-05-16T06:41:59;15;15;
44350;PMS5003;62766;62.622;17.912;2023-05-16T06:44:27;14;14;
44350;PMS5003;62766;62.622;17.912;2023-05-16T06:46:54;10;10;
44350;PMS5003;62766;62.622;17.912;2023-05-16T06:49:23;12;12;
44350;PMS5003;62766;62.622;17.912;2023-05-16T06:51:51;16;14;
44350;PMS5003;62766;62.622;17.912;2023-05-16T06:54:19;17;16;
44350;PMS5003;62766;62.622;17.912;2023-05-16T06:56:48;16;15;
44350;PMS5003;62766;62.622;17.912;2023-05-16T06:59:16;13;13;
44350;PMS5003;62766;62.622;17.912;2023-05-16T07:01:44;15;13;
44350;PMS5003;62766;62.622;17.912;2023-05-16T07:04:12;15;14;
44350;PMS5003;62766;62.622;17.912;2023-05-16T07:06:41;10;10;
44350;PMS5003;62766;62.622;17.912;2023-05-16T07:09:09;15;14;
44350;PMS5003;62766;62.622;17.912;2023-05-16T07:11:37;15;14;
44350;PMS5003;62766;62.622;17.912;2023-05-16T07:14:05;13;13;
44350;PMS5003;62766;62.622;17.912;2023-05-16T07:16:33;17;16;
44350;PMS5003;62766;62.622;17.912;2023-05-16T07:19:01;15;15;
44350;PMS5003;62766;62.622;17.912;2023-05-16T07:21:30;16;16;
44350;PMS5003;62766;62.622;17.912;2023-05-16T07:23:58;14;14;
44350;PMS5003;62766;62.622;17.912;2023-05-16T07:26:27;13;13;
44350;PMS5003;62766;62.622;17.912;2023-05-16T07:28:56;11;11;
44350;PMS5003;62766;62.622;17.912;2023-05-16T07:31:24;11;11;
44350;PMS5003;62766;62.622;17.912;2023-05-16T07:33:54;9;9;
44350;PMS5003;62766;62.622;17.912;2023-05-16T07:36:22;12;12;
44350;PMS5003;62766;62.622;17.912;2023-05-16T07:38:52;11;11;
44350;PMS5003;62766;62.622;17.912;2023-05-16T07:41:20;17;14;
44350;PMS5003;62766;62.622;17.912;2023-05-16T07:43:48;12;10;
44350;PMS5003;62766;62.622;17.912;2023-05-16T07:46:17;14;12;
44350;PMS5003;62766;62.622;17.912;2023-05-16T07:48:45;12;12;
44350;PMS5003;62766;62.622;17.912;2023-05-16T07:51:14;14;14;
44350;PMS5003;62766;62.622;17.912;2023-05-16T07:53:42;11;10;
44350;PMS5003;62766;62.622;17.912;2023-05-16T07:56:10;11;11;
44350;PMS5003;62766;62.622;17.912;2023-05-16T07:58:40;10;10;
44350;PMS5003;62766;62.622;17.912;2023-05-16T08:01:08;11;11;
44350;PMS5003;62766;62.622;17.912;2023-05-16T08:03:36;15;12;
44350;PMS5003;62766;62.622;17.912;2023-05-16T08:06:05;10;10;
44350;PMS5003;62766;62.622;17.912;2023-05-16T08:08:33;11;11;
44350;PMS5003;62766;62.622;17.912;2023-05-16T08:11:01;12;11;
44350;PMS5003;62766;62.622;17.912;2023-05-16T08:13:29;11;11;
44350;PMS5003;62766;62.622;17.912;2023-05-16T08:15:57;13;11;
44350;PMS5003;62766;62.622;17.912;2023-05-16T08:18:26;11;11;
44350;PMS5003;62766;62.622;17.912;2023-05-16T08:20:55;10;10;
44350;PMS5003;62766;62.622;17.912;2023-05-16T08:23:24;9;9;
44350;PMS5003;62766;62.622;17.912;2023-05-16T08:25:53;11;9;
44350;PMS5003;62766;62.622;17.912;2023-05-16T08:28:23;12;12;
44350;PMS5003;62766;62.622;17.912;2023-05-16T08:30:51;12;12;
44350;PMS5003;62766;62.622;17.912;2023-05-16T08:33:19;11;11;
44350;PMS5003;62766;62.622;17.912;2023-05-16T08:35:49;10;10;
44350;PMS5003;62766;62.622;17.912;2023-05-16T08:38:17;15;13;
44350;PMS5003;62766;62.622;17.912;2023-05-16T08:40:45;11;10;
44350;PMS5003;62766;62.622;17.912;2023-05-16T08:43:14;11;11;
44350;PMS5003;62766;62.622;17.912;2023-05-16T08:45:42;11;11;
44350;PMS5003;62766;62.622;17.912;2023-05-16T08:48:11;10;10;
44350;PMS5003;62766;62.622;17.912;2023-05-16T08:50:43;15;15;
44350;PMS5003;62766;62.622;17.912;2023-05-16T08:53:11;13;13;
44350;PMS5003;62766;62.622;17.912;2023-05-16T08:55:45;13;12;
44350;PMS5003;62766;62.622;17.912;2023-05-16T08:58:16;14;13;
44350;PMS5003;62766;62.622;17.912;2023-05-16T09:00:45;14;14;
44350;PMS5003;62766;62.622;17.912;2023-05-16T09:03:14;11;11;
44350;PMS5003;62766;62.622;17.912;2023-05-16T09:05:44;11;10;
44350;PMS5003;62766;62.622;17.912;2023-05-16T09:08:14;12;12;
44350;PMS5003;62766;62.622;17.912;2023-05-16T09:10:42;13;13;
44350;PMS5003;62766;62.622;17.912;2023-05-16T09:13:11;14;12;
44350;PMS5003;62766;62.622;17.912;2023-05-16T09:15:39;13;13;
44350;PMS5003;62766;62.622;17.912;2023-05-16T09:18:10;13;13;
44350;PMS5003;62766;62.622;17.912;2023-05-16T09:20:42;11;11;
44350;PMS5003;62766;62.622;17.912;2023-05-16T09:23:12;13;11;
44350;PMS5003;62766;62.622;17.912;2023-05-16T09:25:41;14;13;
44350;PMS5003;62766;62.622;17.912;2023-05-16T09:28:09;10;10;
44350;PMS5003;62766;62.622;17.912;2023-05-16T09:30:39;12;12;
44350;PMS5003;62766;62.622;17.912;2023-05-16T09:33:07;12;12;
44350;PMS5003;62766;62.622;17.912;2023-05-16T09:35:35;13;11;
44350;PMS5003;62766;62.622;17.912;2023-05-16T09:38:03;14;12;
44350;PMS5003;62766;62.622;17.912;2023-05-16T09:40:31;12;12;
44350;PMS5003;62766;62.622;17.912;2023-05-16T09:43:01;15;12;
44350;PMS5003;62766;62.622;17.912;2023-05-16T09:45:31;12;10;
44350;PMS5003;62766;62.622;17.912;2023-05-16T09:48:03;12;12;
44350;PMS5003;62766;62.622;17.912;2023-05-16T09:50:32;16;13;
44350;PMS5003;62766;62.622;17.912;2023-05-16T09:53:00;12;12;
44350;PMS5003;62766;62.622;17.912;2023-05-16T09:55:29;10;10;
44350;PMS5003;62766;62.622;17.912;2023-05-16T09:57:57;13;13;
44350;PMS5003;62766;62.622;17.912;2023-05-16T10:03:25;12;10;
44350;PMS5003;62766;62.622;17.912;2023-05-16T10:05:55;14;13;
44350;PMS5003;62766;62.622;17.912;2023-05-16T10:08:24;11;11;
44350;PMS5003;62766;62.622;17.912;2023-05-16T10:10:54;18;18;
44350;PMS5003;62766;62.622;17.912;2023-05-16T10:13:23;12;12;
44350;PMS5003;62766;62.622;17.912;2023-05-16T10:15:56;10;10;
44350;PMS5003;62766;62.622;17.912;2023-05-16T10:18:28;10;10;
44350;PMS5003;62766;62.622;17.912;2023-05-16T10:21:02;12;12;
44350;PMS5003;62766;62.622;17.912;2023-05-16T10:23:33;12;11;
44350;PMS5003;62766;62.622;17.912;2023-05-16T10:26:03;13;13;
44350;PMS5003;62766;62.622;17.912;2023-05-16T10:28:33;11;11;
44350;PMS5003;62766;62.622;17.912;2023-05-16T10:31:02;9;9;
44350;PMS5003;62766;62.622;17.912;2023-05-16T10:33:31;12;12;
44350;PMS5003;62766;62.622;17.912;2023-05-16T10:36:00;14;12;
44350;PMS5003;62766;62.622;17.912;2023-05-16T10:38:30;14;13;
44350;PMS5003;62766;62.622;17.912;2023-05-16T10:41:00;16;14;
44350;PMS5003;62766;62.622;17.912;2023-05-16T10:43:30;20;18;
44350;PMS5003;62766;62.622;17.912;2023-05-16T10:46:02;12;12;
44350;PMS5003;62766;62.622;17.912;2023-05-16T10:48:33;14;14;
44350;PMS5003;62766;62.622;17.912;2023-05-16T10:51:04;14;12;
44350;PMS5003;62766;62.622;17.912;2023-05-16T10:54:04;10;10;
44350;PMS5003;62766;62.622;17.912;2023-05-16T10:56:35;15;14;
44350;PMS5003;62766;62.622;17.912;2023-05-16T10:59:04;16;15;
44350;PMS5003;62766;62.622;17.912;2023-05-16T11:01:51;14;14;
44350;PMS5003;62766;62.622;17.912;2023-05-16T11:04:19;17;15;
44350;PMS5003;62766;62.622;17.912;2023-05-16T11:06:49;14;13;
44350;PMS5003;62766;62.622;17.912;2023-05-16T11:09:21;19;15;
44350;PMS5003;62766;62.622;17.912;2023-05-16T11:11:55;14;14;
44350;PMS5003;62766;62.622;17.912;2023-05-16T11:14:25;17;14;
44350;PMS5003;62766;62.622;17.912;2023-05-16T11:16:59;17;17;
44350;PMS5003;62766;62.622;17.912;2023-05-16T11:19:30;15;14;
44350;PMS5003;62766;62.622;17.912;2023-05-16T11:22:04;17;14;
44350;PMS5003;62766;62.622;17.912;2023-05-16T11:24:34;16;16;
44350;PMS5003;62766;62.622;17.912;2023-05-16T11:27:04;17;17;
44350;PMS5003;62766;62.622;17.912;2023-05-16T11:29:33;17;15;
44350;PMS5003;62766;62.622;17.912;2023-05-16T11:32:03;18;18;
44350;PMS5003;62766;62.622;17.912;2023-05-16T11:34:34;20;20;
44350;PMS5003;62766;62.622;17.912;2023-05-16T11:37:04;18;18;
44350;PMS5003;62766;62.622;17.912;2023-05-16T11:39:33;20;19;
44350;PMS5003;62766;62.622;17.912;2023-05-16T11:42:01;15;15;
44350;PMS5003;62766;62.622;17.912;2023-05-16T11:44:30;20;20;
44350;PMS5003;62766;62.622;17.912;2023-05-16T11:47:00;20;20;
44350;PMS5003;62766;62.622;17.912;2023-05-16T11:49:29;17;17;
44350;PMS5003;62766;62.622;17.912;2023-05-16T11:51:57;22;17;
44350;PMS5003;62766;62.622;17.912;2023-05-16T11:54:27;17;17;
44350;PMS5003;62766;62.622;17.912;2023-05-16T11:56:55;16;14;
44350;PMS5003;62766;62.622;17.912;2023-05-16T11:59:25;19;18;
44350;PMS5003;62766;62.622;17.912;2023-05-16T12:01:53;17;15;
44350;PMS5003;62766;62.622;17.912;2023-05-16T12:04:21;17;16;
44350;PMS5003;62766;62.622;17.912;2023-05-16T12:06:57;18;18;
44350;PMS5003;62766;62.622;17.912;2023-05-16T12:09:26;19;18;
44350;PMS5003;62766;62.622;17.912;2023-05-16T12:11:55;17;17;
44350;PMS5003;62766;62.622;17.912;2023-05-16T12:14:23;20;20;
44350;PMS5003;62766;62.622;17.912;2023-05-16T12:16:52;18;18;
44350;PMS5003;62766;62.622;17.912;2023-05-16T12:19:21;20;20;
44350;PMS5003;62766;62.622;17.912;2023-05-16T12:21:51;18;17;
44350;PMS5003;62766;62.622;17.912;2023-05-16T12:24:20;18;18;
44350;PMS5003;62766;62.622;17.912;2023-05-16T12:26:48;25;25;
44350;PMS5003;62766;62.622;17.912;2023-05-16T12:29:20;22;21;
44350;PMS5003;62766;62.622;17.912;2023-05-16T12:31:51;19;17;
44350;PMS5003;62766;62.622;17.912;2023-05-16T12:34:20;18;18;
44350;PMS5003;62766;62.622;17.912;2023-05-16T12:36:50;22;22;
44350;PMS5003;62766;62.622;17.912;2023-05-16T12:39:19;20;20;
44350;PMS5003;62766;62.622;17.912;2023-05-16T12:41:48;17;17;
44350;PMS5003;62766;62.622;17.912;2023-05-16T12:44:18;22;22;
44350;PMS5003;62766;62.622;17.912;2023-05-16T12:46:48;26;25;
44350;PMS5003;62766;62.622;17.912;2023-05-16T12:49:18;23;22;
44350;PMS5003;62766;62.622;17.912;2023-05-16T12:51:48;19;19;
44350;PMS5003;62766;62.622;17.912;2023-05-16T12:54:18;22;22;
44350;PMS5003;62766;62.622;17.912;2023-05-16T12:56:47;25;25;
44350;PMS5003;62766;62.622;17.912;2023-05-16T12:59:15;20;20;
44350;PMS5003;62766;62.622;17.912;2023-05-16T13:01:43;21;21;
44350;PMS5003;62766;62.622;17.912;2023-05-16T13:04:12;19;19;
44350;PMS5003;62766;62.622;17.912;2023-05-16T13:06:42;24;20;
44350;PMS5003;62766;62.622;17.912;2023-05-16T13:09:10;20;18;
44350;PMS5003;62766;62.622;17.912;2023-05-16T13:11:39;18;17;
44350;PMS5003;62766;62.622;17.912;2023-05-16T13:14:07;23;20;
44350;PMS5003;62766;62.622;17.912;2023-05-16T13:16:36;20;20;
44350;PMS5003;62766;62.622;17.912;2023-05-16T13:19:05;25;25;
44350;PMS5003;62766;62.622;17.912;2023-05-16T13:21:34;21;19;
44350;PMS5003;62766;62.622;17.912;2023-05-16T13:24:02;20;20;
44350;PMS5003;62766;62.622;17.912;2023-05-16T13:26:32;21;20;
44350;PMS5003;62766;62.622;17.912;2023-05-16T13:29:01;18;18;
44350;PMS5003;62766;62.622;17.912;2023-05-16T13:31:29;21;21;
44350;PMS5003;62766;62.622;17.912;2023-05-16T13:33:57;18;17;
44350;PMS5003;62766;62.622;17.912;2023-05-16T13:36:26;23;21;
44350;PMS5003;62766;62.622;17.912;2023-05-16T13:38:54;17;16;
44350;PMS5003;62766;62.622;17.912;2023-05-16T13:41:23;18;18;
44350;PMS5003;62766;62.622;17.912;2023-05-16T13:43:51;19;18;
44350;PMS5003;62766;62.622;17.912;2023-05-16T13:46:19;19;18;
44350;PMS5003;62766;62.622;17.912;2023-05-16T13:48:47;20;20;
44350;PMS5003;62766;62.622;17.912;2023-05-16T13:51:16;20;20;
44350;PMS5003;62766;62.622;17.912;2023-05-16T13:53:45;17;17;
44350;PMS5003;62766;62.622;17.912;2023-05-16T13:56:13;17;17;
44350;PMS5003;62766;62.622;17.912;2023-05-16T13:58:41;16;16;
44350;PMS5003;62766;62.622;17.912;2023-05-16T14:01:09;19;19;
44350;PMS5003;62766;62.622;17.912;2023-05-16T14:03:38;18;18;
44350;PMS5003;62766;62.622;17.912;2023-05-16T14:06:06;16;16;
44350;PMS5003;62766;62.622;17.912;2023-05-16T14:08:35;21;20;
44350;PMS5003;62766;62.622;17.912;2023-05-16T14:11:04;20;20;
44350;PMS5003;62766;62.622;17.912;2023-05-16T14:13:32;20;18;
44350;PMS5003;62766;62.622;17.912;2023-05-16T14:16:01;17;17;
44350;PMS5003;62766;62.622;17.912;2023-05-16T14:18:29;17;17;
44350;PMS5003;62766;62.622;17.912;2023-05-16T14:20:59;15;15;
44350;PMS5003;62766;62.622;17.912;2023-05-16T14:23:28;17;17;
44350;PMS5003;62766;62.622;17.912;2023-05-16T14:25:56;18;18;
44350;PMS5003;62766;62.622;17.912;2023-05-16T14:28:24;16;16;
44350;PMS5003;62766;62.622;17.912;2023-05-16T14:30:53;22;20;
44350;PMS5003;62766;62.622;17.912;2023-05-16T14:33:21;20;19;
44350;PMS5003;62766;62.622;17.912;2023-05-16T14:35:50;16;16;
44350;PMS5003;62766;62.622;17.912;2023-05-16T14:38:20;17;17;
44350;PMS5003;62766;62.622;17.912;2023-05-16T14:40:48;17;16;
44350;PMS5003;62766;62.622;17.912;2023-05-16T14:43:16;16;15;
44350;PMS5003;62766;62.622;17.912;2023-05-16T14:45:45;26;25;
44350;PMS5003;62766;62.622;17.912;2023-05-16T14:48:13;17;17;
44350;PMS5003;62766;62.622;17.912;2023-05-16T14:50:43;16;16;
44350;PMS5003;62766;62.622;17.912;2023-05-16T14:53:12;18;18;
44350;PMS5003;62766;62.622;17.912;2023-05-16T14:55:40;17;16;
44350;PMS5003;62766;62.622;17.912;2023-05-16T14:58:10;19;19;
44350;PMS5003;62766;62.622;17.912;2023-05-16T15:00:38;15;15;
44350;PMS5003;62766;62.622;17.912;2023-05-16T15:03:07;14;14;
44350;PMS5003;62766;62.622;17.912;2023-05-16T15:05:35;16;14;
44350;PMS5003;62766;62.622;17.912;2023-05-16T15:08:04;15;14;
44350;PMS5003;62766;62.622;17.912;2023-05-16T15:10:32;15;15;
44350;PMS5003;62766;62.622;17.912;2023-05-16T15:13:00;13;13;
44350;PMS5003;62766;62.622;17.912;2023-05-16T15:15:28;15;13;
44350;PMS5003;62766;62.622;17.912;2023-05-16T15:17:57;14;14;
44350;PMS5003;62766;62.622;17.912;2023-05-16T15:20:25;19;17;
44350;PMS5003;62766;62.622;17.912;2023-05-16T15:22:55;14;14;
44350;PMS5003;62766;62.622;17.912;2023-05-16T15:25:23;17;17;
44350;PMS5003;62766;62.622;17.912;2023-05-16T15:27:51;13;13;
44350;PMS5003;62766;62.622;17.912;2023-05-16T15:30:20;11;11;
44350;PMS5003;62766;62.622;17.912;2023-05-16T15:32:50;13;13;
44350;PMS5003;62766;62.622;17.912;2023-05-16T15:35:18;15;15;
44350;PMS5003;62766;62.622;17.912;2023-05-16T15:37:46;11;11;
44350;PMS5003;62766;62.622;17.912;2023-05-16T15:40:15;12;12;
44350;PMS5003;62766;62.622;17.912;2023-05-16T15:42:45;14;14;
44350;PMS5003;62766;62.622;17.912;2023-05-16T15:45:12;18;18;
44350;PMS5003;62766;62.622;17.912;2023-05-16T15:47:40;13;13;
44350;PMS5003;62766;62.622;17.912;2023-05-16T15:50:09;15;15;
44350;PMS5003;62766;62.622;17.912;2023-05-16T15:52:37;18;17;
44350;PMS5003;62766;62.622;17.912;2023-05-16T15:55:06;19;18;
44350;PMS5003;62766;62.622;17.912;2023-05-16T15:57:36;20;17;
44350;PMS5003;62766;62.622;17.912;2023-05-16T16:03:23;18;18;
44350;PMS5003;62766;62.622;17.912;2023-05-16T16:05:51;17;17;
44350;PMS5003;62766;62.622;17.912;2023-05-16T16:08:19;16;16;
44350;PMS5003;62766;62.622;17.912;2023-05-16T16:10:47;15;14;
44350;PMS5003;62766;62.622;17.912;2023-05-16T16:13:16;16;16;
44350;PMS5003;62766;62.622;17.912;2023-05-16T16:15:43;19;17;
44350;PMS5003;62766;62.622;17.912;2023-05-16T16:18:11;19;15;
44350;PMS5003;62766;62.622;17.912;2023-05-16T16:20:40;15;14;
44350;PMS5003;62766;62.622;17.912;2023-05-16T16:23:08;17;15;